Time;durP1;ratioP1;P1;durP2;ratioP2;P2;SDS_P1;SDS_P2;PMS_P1;PMS_P2;Temp;Humidity;BMP_temperature;BMP_pressure;BME280_temperature;BME280_humidity;BME280_pressure;Samples;Min_cycle;Max_cycle;Signal;HPM_P1;HPM_P2
2024/01/30 00:01:35;;;;;;;4.95;2.72;;;;;;;18.63;43.01;102524.25;4970006;28;20039;-70
2024/01/30 00:04:01;;;;;;;4.53;2.70;;;;;;;18.56;43.13;102513.16;4968414;28;20031;-70
2024/01/30 00:06:26;;;;;;;5.10;3.20;;;;;;;18.52;42.96;102514.28;4970390;28;20042;-70
2024/01/30 00:08:51;;;;;;;5.38;2.80;;;;;;;18.48;42.91;102508.34;4970294;28;20550;-71
2024/01/30 00:11:16;;;;;;;4.63;3.05;;;;;;;18.49;42.81;102515.31;4968451;28;20045;-71
2024/01/30 00:13:42;;;;;;;4.07;2.60;;;;;;;18.49;42.88;102514.47;4969760;28;20046;-71
2024/01/30 00:16:09;;;;;;;4.70;2.80;;;;;;;18.47;42.90;102519.84;4966954;28;20412;-71
2024/01/30 00:18:34;;;;;;;4.50;2.78;;;;;;;18.55;42.91;102527.31;4968046;28;20133;-71
2024/01/30 00:20:59;;;;;;;5.57;3.03;;;;;;;18.55;42.84;102523.81;4968094;28;20170;-71
2024/01/30 00:23:25;;;;;;;5.05;3.10;;;;;;;18.52;42.79;102522.22;4968311;28;20054;-71
2024/01/30 00:25:50;;;;;;;5.05;3.08;;;;;;;18.47;42.81;102509.28;4968533;28;20038;-71
2024/01/30 00:28:16;;;;;;;5.68;3.30;;;;;;;18.51;42.69;102517.88;4967388;28;20479;-71
2024/01/30 00:30:41;;;;;;;5.70;2.97;;;;;;;18.39;42.77;102503.59;4969345;28;20438;-71
2024/01/30 00:33:07;;;;;;;5.53;2.95;;;;;;;18.47;42.65;102519.00;4969299;28;20041;-71
2024/01/30 00:35:33;;;;;;;4.65;2.83;;;;;;;18.43;42.62;102510.38;4969817;28;20555;-71
2024/01/30 00:37:58;;;;;;;5.18;3.05;;;;;;;18.34;42.68;102495.06;4969107;28;20129;-71
2024/01/30 00:40:23;;;;;;;5.38;3.08;;;;;;;18.31;42.57;102490.81;4969495;28;20037;-71
2024/01/30 00:42:48;;;;;;;5.00;2.80;;;;;;;18.38;42.79;102501.88;4969528;28;20030;-71
2024/01/30 00:45:15;;;;;;;4.70;2.90;;;;;;;18.34;42.75;102499.47;4969650;28;20456;-71
2024/01/30 00:47:41;;;;;;;4.60;2.72;;;;;;;18.41;42.58;102506.97;4969693;28;20101;-71
2024/01/30 00:50:06;;;;;;;4.55;2.80;;;;;;;18.41;42.41;102514.91;4968845;28;20509;-71
2024/01/30 00:52:32;;;;;;;5.20;3.20;;;;;;;18.41;42.44;102508.78;4969535;28;20033;-71
2024/01/30 00:54:58;;;;;;;5.43;3.15;;;;;;;18.28;42.60;102490.13;4969298;28;20039;-71
2024/01/30 00:57:24;;;;;;;5.68;2.80;;;;;;;18.40;42.49;102510.53;4969318;28;20444;-70
2024/01/30 00:59:49;;;;;;;5.38;2.70;;;;;;;18.38;42.50;102509.78;4968125;28;20039;-71
2024/01/30 01:02:17;;;;;;;4.18;2.70;;;;;;;18.37;42.39;102504.59;4966006;28;20031;-71
2024/01/30 01:04:42;;;;;;;4.55;3.00;;;;;;;18.32;42.36;102496.94;4966774;28;20107;-71
2024/01/30 01:07:07;;;;;;;4.65;3.05;;;;;;;18.36;42.26;102502.88;4967402;28;20142;-72
2024/01/30 01:09:33;;;;;;;5.90;3.08;;;;;;;18.36;42.27;102508.16;4967628;28;20112;-72
2024/01/30 01:11:58;;;;;;;5.15;2.92;;;;;;;18.26;42.40;102490.22;4967590;28;20058;-71
2024/01/30 01:14:23;;;;;;;5.68;2.70;;;;;;;18.21;42.37;102480.84;4968017;28;20365;-71
2024/01/30 01:16:49;;;;;;;5.75;2.78;;;;;;;18.30;42.22;102499.66;4968650;28;20174;-71
2024/01/30 01:19:14;;;;;;;5.55;3.13;;;;;;;18.17;42.45;102472.25;4969116;28;20375;-71
2024/01/30 01:21:39;;;;;;;4.70;2.72;;;;;;;18.18;42.09;102484.50;4968658;28;20030;-71
2024/01/30 01:24:05;;;;;;;4.65;2.85;;;;;;;18.23;42.53;102490.38;4968904;28;20069;-72
2024/01/30 01:26:30;;;;;;;4.57;2.90;;;;;;;18.15;42.28;102476.78;4968598;28;20474;-71
2024/01/30 01:28:56;;;;;;;4.85;3.15;;;;;;;18.24;42.22;102484.16;4969200;28;20038;-71
2024/01/30 01:31:24;;;;;;;5.65;3.03;;;;;;;18.22;42.32;102485.19;4968955;28;20121;-71
2024/01/30 01:33:49;;;;;;;4.45;2.75;;;;;;;18.25;42.38;102491.16;4968683;28;20098;-71
2024/01/30 01:36:15;;;;;;;4.47;2.67;;;;;;;18.26;41.92;102492.88;4968568;28;20038;-71
2024/01/30 01:38:40;;;;;;;4.55;2.75;;;;;;;18.11;42.15;102467.31;4968155;28;20471;-71
2024/01/30 01:41:05;;;;;;;5.72;2.80;;;;;;;18.25;42.33;102496.44;4968206;28;20038;-71
2024/01/30 01:43:30;;;;;;;5.80;2.70;;;;;;;18.24;42.16;102491.22;4968670;28;20415;-72
2024/01/30 01:45:56;;;;;;;4.90;2.88;;;;;;;18.21;42.02;102489.59;4967204;28;20042;-71
2024/01/30 01:48:21;;;;;;;5.82;2.80;;;;;;;18.21;42.35;102484.31;4966813;28;20023;-71
2024/01/30 01:50:47;;;;;;;5.13;3.38;;;;;;;18.08;42.07;102460.41;4967066;28;20525;-71
2024/01/30 01:53:13;;;;;;;4.45;2.58;;;;;;;18.18;42.40;102470.47;4966475;28;20582;-71
2024/01/30 01:55:38;;;;;;;5.68;2.95;;;;;;;18.17;42.34;102472.25;4966809;28;20082;-71
2024/01/30 01:58:04;;;;;;;5.07;2.90;;;;;;;18.17;42.34;102474.06;4964157;28;20114;-71
2024/01/30 02:00:31;;;;;;;4.47;2.70;;;;;;;18.17;42.23;102471.41;4966910;28;20058;-71
2024/01/30 02:02:56;;;;;;;4.72;2.85;;;;;;;18.06;42.19;102450.91;4965476;28;20043;-71
2024/01/30 02:05:21;;;;;;;5.65;3.03;;;;;;;18.04;42.44;102450.13;4967607;28;20365;-71
2024/01/30 02:07:47;;;;;;;4.70;2.90;;;;;;;18.15;42.21;102466.22;4968145;28;20049;-71
2024/01/30 02:10:12;;;;;;;5.55;2.90;;;;;;;18.17;42.34;102468.78;4967897;28;20567;-71
2024/01/30 02:12:38;;;;;;;4.72;2.80;;;;;;;18.05;41.99;102452.66;4967769;28;20039;-71
2024/01/30 02:15:04;;;;;;;5.30;2.90;;;;;;;18.00;42.26;102441.53;4967610;28;20464;-71
2024/01/30 02:17:30;;;;;;;4.70;2.70;;;;;;;18.02;42.15;102444.09;4967428;28;20037;-71
2024/01/30 02:19:55;;;;;;;5.18;3.08;;;;;;;18.10;42.27;102466.47;4967158;28;20118;-71
2024/01/30 02:22:22;;;;;;;4.82;2.80;;;;;;;17.96;42.39;102434.72;4966277;28;20122;-72
2024/01/30 02:24:47;;;;;;;4.45;2.75;;;;;;;18.02;42.35;102446.72;4967207;28;20121;-72
2024/01/30 02:27:12;;;;;;;4.72;2.70;;;;;;;18.11;42.17;102462.03;4967460;28;20117;-71
2024/01/30 02:29:38;;;;;;;4.85;2.90;;;;;;;18.09;42.08;102459.50;4967439;28;20514;-72
2024/01/30 02:32:03;;;;;;;4.63;2.90;;;;;;;18.09;42.25;102464.75;4967344;28;20042;-72
2024/01/30 02:34:28;;;;;;;4.80;3.15;;;;;;;18.08;42.22;102460.41;4967403;28;20268;-71
2024/01/30 02:36:54;;;;;;;4.40;2.70;;;;;;;18.05;42.15;102457.09;4967648;28;20521;-72
2024/01/30 02:39:19;;;;;;;4.57;2.60;;;;;;;18.08;42.31;102462.22;4967743;28;20097;-72
2024/01/30 02:41:45;;;;;;;4.50;2.53;;;;;;;17.99;42.38;102441.59;4967552;28;20757;-72
2024/01/30 02:44:10;;;;;;;4.18;2.58;;;;;;;17.95;42.36;102439.13;4967252;28;20106;-72
2024/01/30 02:46:35;;;;;;;4.90;2.90;;;;;;;18.06;42.37;102456.19;4966879;28;20110;-72
2024/01/30 02:49:00;;;;;;;4.95;2.80;;;;;;;17.92;42.45;102439.31;4967062;28;20027;-71
2024/01/30 02:51:26;;;;;;;4.40;2.58;;;;;;;17.95;42.35;102433.03;4968421;28;20101;-71
2024/01/30 02:53:51;;;;;;;4.13;2.38;;;;;;;18.01;42.30;102455.56;4971002;28;20494;-72
2024/01/30 02:56:16;;;;;;;5.10;2.90;;;;;;;17.99;42.34;102447.75;4969654;28;20081;-72
2024/01/30 02:58:41;;;;;;;5.22;3.08;;;;;;;17.98;42.21;102448.69;4970923;28;20035;-72
2024/01/30 03:01:07;;;;;;;4.40;2.70;;;;;;;18.00;42.18;102445.97;4971301;28;20112;-72
2024/01/30 03:03:35;;;;;;;4.47;2.78;;;;;;;18.02;42.12;102444.91;4969151;28;20121;-72
2024/01/30 03:06:00;;;;;;;4.95;2.50;;;;;;;18.03;42.20;102451.06;4971101;28;20035;-72
2024/01/30 03:08:25;;;;;;;4.45;2.63;;;;;;;18.02;42.19;102447.56;4971121;28;20101;-72
2024/01/30 03:10:51;;;;;;;5.65;2.95;;;;;;;18.03;42.29;102448.44;4971008;28;20039;-72
2024/01/30 03:13:16;;;;;;;4.75;3.00;;;;;;;17.98;42.13;102429.38;4971533;28;20088;-71
2024/01/30 03:15:41;;;;;;;4.95;2.50;;;;;;;17.86;42.38;102410.59;4971189;28;20460;-71
2024/01/30 03:18:07;;;;;;;4.15;2.38;;;;;;;17.87;42.10;102408.84;4971250;28;20030;-72
2024/01/30 03:20:32;;;;;;;4.55;2.70;;;;;;;17.86;42.12;102399.22;4970929;28;20154;-71
2024/01/30 03:22:59;;;;;;;5.03;3.10;;;;;;;17.97;41.96;102427.66;4970910;28;20042;-72
2024/01/30 03:25:25;;;;;;;4.55;2.95;;;;;;;17.92;42.07;102418.22;4971069;28;20113;-72
2024/01/30 03:27:51;;;;;;;5.50;3.05;;;;;;;17.87;42.26;102407.03;4971160;28;20058;-71
2024/01/30 03:30:16;;;;;;;5.03;2.53;;;;;;;17.94;41.88;102423.41;4970849;28;20034;-72
2024/01/30 03:32:41;;;;;;;4.85;2.65;;;;;;;17.92;42.12;102420.00;4970473;28;20038;-71
2024/01/30 03:35:07;;;;;;;4.43;2.72;;;;;;;17.84;41.92;102409.84;4970523;28;20027;-72
2024/01/30 03:37:32;;;;;;;5.05;2.83;;;;;;;17.89;41.99;102409.63;4970715;28;20050;-71
2024/01/30 03:39:57;;;;;;;5.20;2.80;;;;;;;17.94;42.04;102428.66;4970615;28;20141;-71
2024/01/30 03:42:23;;;;;;;4.85;2.75;;;;;;;17.92;42.20;102420.84;4970572;28;20033;-71
2024/01/30 03:44:48;;;;;;;4.63;2.60;;;;;;;17.84;42.01;102409.00;4970755;28;20085;-71
2024/01/30 03:47:13;;;;;;;4.90;2.90;;;;;;;17.92;41.85;102427.91;4969865;28;20431;-70
2024/01/30 03:49:39;;;;;;;6.15;2.75;;;;;;;17.90;42.04;102420.09;4970138;28;20550;-71
2024/01/30 03:52:04;;;;;;;5.25;2.80;;;;;;;17.92;42.17;102433.19;4969695;28;20410;-71
2024/01/30 03:54:29;;;;;;;5.30;2.80;;;;;;;17.85;41.94;102422.09;4970029;28;20030;-70
2024/01/30 03:56:55;;;;;;;4.60;2.40;;;;;;;17.81;42.13;102420.56;4969118;28;20348;-71
2024/01/30 03:59:23;;;;;;;5.28;2.60;;;;;;;17.90;42.12;102430.63;4970237;28;20043;-71
2024/01/30 04:01:50;;;;;;;5.10;2.70;;;;;;;17.80;41.69;102421.50;4968122;28;20035;-71
2024/01/30 04:04:15;;;;;;;5.50;2.80;;;;;;;17.88;42.06;102434.28;4983755;28;20394;-71
2024/01/30 04:06:40;;;;;;;5.45;2.75;;;;;;;17.85;42.00;102431.78;4969980;28;20123;-71
2024/01/30 04:09:05;;;;;;;4.10;2.50;;;;;;;17.83;42.05;102426.63;4970140;28;20046;-71
2024/01/30 04:11:31;;;;;;;4.35;2.50;;;;;;;17.89;41.97;102438.63;4970083;28;20039;-71
2024/01/30 04:13:56;;;;;;;4.85;2.80;;;;;;;17.74;42.15;102414.78;4970118;28;20122;-71
2024/01/30 04:16:22;;;;;;;4.22;2.83;;;;;;;17.85;42.41;102426.50;4970103;28;20387;-71
2024/01/30 04:18:48;;;;;;;4.80;2.80;;;;;;;17.88;42.15;102427.25;4970025;28;20039;-71
2024/01/30 04:21:13;;;;;;;5.80;2.70;;;;;;;17.83;42.17;102418.72;4969956;28;20035;-71
2024/01/30 04:23:40;;;;;;;4.40;2.60;;;;;;;17.76;42.07;102410.25;4969865;28;20030;-71
2024/01/30 04:26:05;;;;;;;4.70;2.58;;;;;;;17.83;42.25;102412.56;4969985;28;20053;-71
2024/01/30 04:28:30;;;;;;;5.45;2.80;;;;;;;17.71;42.04;102399.13;4969994;28;20444;-71
2024/01/30 04:30:56;;;;;;;4.15;2.38;;;;;;;17.84;42.25;102409.00;4969509;28;20113;-71
2024/01/30 04:33:21;;;;;;;5.70;3.13;;;;;;;17.85;42.31;102410.69;4969475;28;20046;-71
2024/01/30 04:35:46;;;;;;;5.75;2.80;;;;;;;17.87;42.13;102422.03;4968982;28;20038;-71
2024/01/30 04:38:11;;;;;;;4.57;2.63;;;;;;;17.75;42.13;102390.13;4968346;28;20112;-71
2024/01/30 04:40:37;;;;;;;4.60;2.60;;;;;;;17.81;42.11;102404.72;4969305;28;20030;-71
2024/01/30 04:43:02;;;;;;;5.25;2.72;;;;;;;17.81;42.13;102394.19;4968888;28;20035;-71
2024/01/30 04:45:27;;;;;;;4.40;2.70;;;;;;;17.81;42.34;102395.97;4969219;28;20193;-71
2024/01/30 04:47:53;;;;;;;5.07;2.67;;;;;;;17.81;42.21;102396.81;4968818;28;20035;-71
2024/01/30 04:50:18;;;;;;;5.07;2.67;;;;;;;17.82;42.21;102392.41;4968902;28;20560;-71
2024/01/30 04:52:44;;;;;;;4.82;2.88;;;;;;;17.81;42.09;102388.06;4969288;28;20121;-71
2024/01/30 04:55:09;;;;;;;4.75;2.70;;;;;;;17.81;42.20;102385.44;4968581;28;20496;-71
2024/01/30 04:57:34;;;;;;;4.60;2.75;;;;;;;17.78;42.01;102389.06;4968887;28;20077;-71
2024/01/30 05:00:00;;;;;;;5.30;2.53;;;;;;;17.76;42.33;102389.16;4968576;28;20026;-71
2024/01/30 05:02:25;;;;;;;3.80;2.30;;;;;;;17.79;42.20;102390.78;4967316;28;20042;-71
2024/01/30 05:04:50;;;;;;;4.30;2.50;;;;;;;17.70;42.22;102378.09;4968776;28;20030;-71
2024/01/30 05:07:16;;;;;;;4.55;2.53;;;;;;;17.79;42.24;102396.06;4969081;28;20881;-71
2024/01/30 05:09:41;;;;;;;4.93;2.50;;;;;;;17.67;42.46;102381.75;4969103;28;20115;-71
2024/01/30 05:12:07;;;;;;;4.60;2.50;;;;;;;17.77;42.46;102395.31;4968831;28;20209;-71
2024/01/30 05:14:32;;;;;;;4.78;2.95;;;;;;;17.66;42.06;102381.88;4967658;28;20089;-71
2024/01/30 05:16:57;;;;;;;5.22;2.70;;;;;;;17.65;42.39;102380.16;4968326;28;20089;-71
2024/01/30 05:19:23;;;;;;;4.07;2.38;;;;;;;17.77;42.20;102397.94;4968418;28;20519;-71
2024/01/30 05:21:49;;;;;;;4.57;2.55;;;;;;;17.64;42.05;102379.31;4968296;28;20027;-71
2024/01/30 05:24:14;;;;;;;4.60;2.63;;;;;;;17.70;42.63;102386.03;4968271;28;20038;-71
2024/01/30 05:26:39;;;;;;;4.90;2.78;;;;;;;17.67;42.20;102380.91;4968067;28;20034;-71
2024/01/30 05:29:06;;;;;;;4.38;2.67;;;;;;;17.64;42.22;102376.69;4966806;28;20130;-71
2024/01/30 05:31:31;;;;;;;4.70;2.88;;;;;;;17.65;42.28;102381.00;4968177;28;20526;-71
2024/01/30 05:33:56;;;;;;;4.90;2.85;;;;;;;17.74;42.22;102398.94;4969025;28;20031;-71
2024/01/30 05:36:22;;;;;;;4.80;2.70;;;;;;;17.69;41.99;102395.72;4968130;28;20062;-71
2024/01/30 05:38:47;;;;;;;4.38;2.38;;;;;;;17.73;42.37;102393.75;4968587;28;20151;-71
2024/01/30 05:41:12;;;;;;;4.82;2.67;;;;;;;17.74;42.28;102393.69;4968372;28;20439;-71
2024/01/30 05:43:38;;;;;;;4.50;2.47;;;;;;;17.64;42.20;102374.03;4968095;28;20459;-70
2024/01/30 05:46:03;;;;;;;5.38;2.58;;;;;;;17.61;42.33;102371.56;4966579;28;20038;-71
2024/01/30 05:48:28;;;;;;;4.40;2.50;;;;;;;17.59;42.45;102379.56;4967493;28;20459;-71
2024/01/30 05:50:54;;;;;;;4.20;2.55;;;;;;;17.67;42.35;102397.56;4967500;28;20476;-71
2024/01/30 05:53:19;;;;;;;6.10;2.70;;;;;;;17.60;42.57;102372.50;4967957;28;20035;-71
2024/01/30 05:55:45;;;;;;;4.93;2.70;;;;;;;17.71;42.21;102395.63;4968026;28;20034;-71
2024/01/30 05:58:11;;;;;;;4.45;2.40;;;;;;;17.66;42.34;102395.06;4968024;28;20031;-71
2024/01/30 06:00:36;;;;;;;4.20;2.28;;;;;;;17.61;42.30;102386.53;4967155;28;20388;-71
2024/01/30 06:03:02;;;;;;;4.80;2.55;;;;;;;17.62;42.28;102383.81;4966368;28;20038;-71
2024/01/30 06:05:27;;;;;;;4.50;2.42;;;;;;;17.65;42.64;102385.44;4967668;28;20098;-71
2024/01/30 06:07:53;;;;;;;3.95;2.17;;;;;;;17.77;42.53;102404.06;4967897;28;20042;-72
2024/01/30 06:10:18;;;;;;;3.95;2.10;;;;;;;17.81;42.66;102406.53;4967835;28;20399;-71
2024/01/30 06:12:44;;;;;;;4.05;2.22;;;;;;;17.75;42.42;102386.59;4968242;28;20038;-71
2024/01/30 06:15:09;;;;;;;4.25;2.33;;;;;;;17.71;42.91;102377.19;4967881;28;20031;-71
2024/01/30 06:17:35;;;;;;;3.97;2.25;;;;;;;17.86;42.63;102400.06;4967995;28;20073;-71
2024/01/30 06:20:00;;;;;;;3.65;2.10;;;;;;;17.89;42.69;102399.91;4967840;28;20145;-71
2024/01/30 06:22:25;;;;;;;3.38;2.08;;;;;;;17.93;42.65;102409.38;4967823;28;20054;-72
2024/01/30 06:24:51;;;;;;;3.17;1.80;;;;;;;17.86;42.62;102389.50;4968548;28;20117;-71
2024/01/30 06:27:17;;;;;;;3.90;2.28;;;;;;;17.98;42.75;102411.75;4966409;28;20051;-72
2024/01/30 06:29:43;;;;;;;4.18;2.20;;;;;;;18.04;42.73;102410.53;4967936;28;20038;-71
2024/01/30 06:32:08;;;;;;;3.83;2.00;;;;;;;17.97;43.11;102410.03;4967199;28;20046;-71
2024/01/30 06:34:33;;;;;;;4.18;2.20;;;;;;;17.88;42.49;102381.53;4966969;28;20035;-71
2024/01/30 06:36:59;;;;;;;3.90;1.95;;;;;;;18.09;42.77;102422.53;4967067;28;20554;-71
2024/01/30 06:39:25;;;;;;;3.60;2.00;;;;;;;17.99;42.63;102405.56;4967212;28;20395;-71
2024/01/30 06:41:50;;;;;;;3.50;1.88;;;;;;;18.09;42.72;102419.91;4966921;28;20311;-70
2024/01/30 06:44:15;;;;;;;3.90;2.05;;;;;;;17.98;42.75;102400.34;4966685;28;20039;-71
2024/01/30 06:46:41;;;;;;;3.60;1.70;;;;;;;18.08;42.63;102407.66;4967067;28;20042;-71
2024/01/30 06:49:06;;;;;;;3.35;1.80;;;;;;;18.16;42.79;102416.94;4967585;28;20084;-72
2024/01/30 06:51:31;;;;;;;4.78;2.03;;;;;;;18.17;42.53;102411.56;4967664;28;20031;-71
2024/01/30 06:53:57;;;;;;;4.35;2.17;;;;;;;18.09;42.76;102404.09;4967604;28;20126;-71
2024/01/30 06:56:22;;;;;;;4.03;1.90;;;;;;;18.17;42.75;102423.91;4966920;28;20039;-71
2024/01/30 06:58:51;;;;;;;4.20;2.13;;;;;;;18.20;42.73;102442.19;4967386;28;20035;-72
2024/01/30 07:01:16;;;;;;;4.00;2.20;;;;;;;18.12;42.58;102434.72;4967387;28;20545;-71
2024/01/30 07:03:42;;;;;;;5.05;2.15;;;;;;;18.14;42.55;102438.13;4964452;28;20121;-72
2024/01/30 07:06:08;;;;;;;4.00;2.15;;;;;;;18.19;42.67;102443.16;4963779;28;20053;-71
2024/01/30 07:08:33;;;;;;;4.78;2.20;;;;;;;18.16;42.95;102440.69;4966427;28;20030;-71
2024/01/30 07:10:59;;;;;;;4.45;2.10;;;;;;;18.15;42.82;102441.59;4964080;28;20046;-71
2024/01/30 07:13:24;;;;;;;4.55;2.30;;;;;;;18.17;43.21;102442.38;4966749;28;20403;-71
2024/01/30 07:15:50;;;;;;;3.90;2.00;;;;;;;18.24;43.59;102451.66;4966069;28;20042;-72
2024/01/30 07:18:15;;;;;;;4.03;2.30;;;;;;;18.16;43.48;102440.69;4966953;28;20058;-71
2024/01/30 07:20:45;;;;;;;4.35;2.22;;;;;;;18.17;43.41;102448.50;4967134;28;20050;-71
2024/01/30 07:23:16;;;;;;;3.67;2.00;;;;;;;18.28;43.30;102466.38;4967364;28;20467;-72
2024/01/30 07:25:41;;;;;;;3.67;1.90;;;;;;;18.17;43.56;102450.31;4967455;28;20033;-72
2024/01/30 07:28:09;;;;;;;4.07;2.00;;;;;;;18.25;43.49;102464.75;4967135;28;20030;-72
2024/01/30 07:30:35;;;;;;;3.80;1.80;;;;;;;18.24;43.38;102463.03;4966856;28;21040;-72
2024/01/30 07:33:00;;;;;;;5.65;2.03;;;;;;;18.17;43.83;102455.59;4967311;28;21145;-72
2024/01/30 07:35:25;;;;;;;3.33;1.70;;;;;;;18.28;43.92;102475.16;4967147;28;20039;-72
2024/01/30 07:37:51;;;;;;;3.90;2.00;;;;;;;18.23;44.15;102465.78;4969153;28;20050;-72
2024/01/30 07:40:17;;;;;;;3.60;1.80;;;;;;;18.20;43.56;102461.53;4970505;28;20336;-72
2024/01/30 07:42:42;;;;;;;4.07;1.95;;;;;;;18.28;43.63;102480.41;4970619;28;20456;-72
2024/01/30 07:45:08;;;;;;;3.60;1.85;;;;;;;18.22;43.87;102464.94;4970143;28;20033;-72
2024/01/30 07:47:33;;;;;;;4.35;2.03;;;;;;;18.20;43.71;102466.81;4970446;28;20027;-72
2024/01/30 07:49:58;;;;;;;5.63;2.20;;;;;;;18.26;43.95;102474.38;4970395;28;20037;-71
2024/01/30 07:52:24;;;;;;;3.90;2.15;;;;;;;18.23;44.03;102471.91;4970273;28;20122;-71
2024/01/30 07:54:50;;;;;;;4.35;2.10;;;;;;;18.34;44.22;102483.66;4965842;28;20080;-70
2024/01/30 07:57:16;;;;;;;5.07;2.28;;;;;;;18.29;44.05;102490.06;4967537;28;20054;-72
2024/01/30 07:59:45;;;;;;;4.15;2.10;;;;;;;18.34;44.29;102495.06;4969763;28;20027;-70
2024/01/30 08:02:12;;;;;;;5.38;2.55;;;;;;;18.37;44.57;102504.59;4967444;28;20065;-70
2024/01/30 08:04:37;;;;;;;4.75;2.50;;;;;;;18.17;44.32;102472.25;4968610;28;20051;-71
2024/01/30 08:07:02;;;;;;;5.05;2.30;;;;;;;18.28;44.40;102490.13;4969309;28;20030;-69
2024/01/30 08:09:28;;;;;;;4.80;2.28;;;;;;;18.24;44.29;102485.97;4969500;28;20037;-69
2024/01/30 08:11:53;;;;;;;4.07;1.90;;;;;;;18.38;44.22;102509.78;4966884;28;20042;-70
2024/01/30 08:14:18;;;;;;;5.10;2.42;;;;;;;18.36;44.63;102514.31;4969191;28;20070;-69
2024/01/30 08:16:44;;;;;;;5.65;2.50;;;;;;;18.30;44.29;102502.28;4951276;28;20035;-71
2024/01/30 08:19:09;;;;;;;5.30;2.22;;;;;;;18.39;44.46;102511.50;4968987;28;20038;-71
2024/01/30 08:21:36;;;;;;;5.80;2.03;;;;;;;18.33;44.65;102500.44;4969034;28;20030;-68
2024/01/30 08:24:03;;;;;;;3.38;2.00;;;;;;;18.36;44.62;102503.75;4968642;28;20043;-71
2024/01/30 08:26:28;;;;;;;6.25;2.65;;;;;;;18.28;44.53;102483.06;4968402;28;20035;-71
2024/01/30 08:28:54;;;;;;;4.75;2.00;;;;;;;18.41;44.51;102514.91;4968625;28;20534;-70
2024/01/30 08:31:19;;;;;;;5.53;2.25;;;;;;;18.40;44.42;102512.34;4968191;28;20038;-69
2024/01/30 08:33:44;;;;;;;7.05;2.00;;;;;;;18.33;44.61;102503.09;4969048;28;20578;-71
2024/01/30 08:36:10;;;;;;;6.32;2.30;;;;;;;18.33;44.66;102492.53;4967735;28;20031;-68
2024/01/30 08:38:35;;;;;;;5.68;2.50;;;;;;;18.35;44.62;102494.13;4969464;28;20078;-68
2024/01/30 08:41:00;;;;;;;4.35;2.03;;;;;;;18.44;44.80;102512.09;4968321;28;20612;-71
2024/01/30 08:43:26;;;;;;;3.95;2.08;;;;;;;18.44;44.53;102512.09;4964458;28;20066;-70
2024/01/30 08:45:51;;;;;;;6.10;2.40;;;;;;;18.45;44.50;102515.56;4967291;28;20087;-70
2024/01/30 08:48:17;;;;;;;5.55;2.20;;;;;;;18.43;44.33;102507.72;4964510;28;20482;-70
2024/01/30 08:50:43;;;;;;;3.72;2.10;;;;;;;18.29;44.27;102492.69;4965582;28;20453;-71
2024/01/30 08:53:08;;;;;;;5.32;2.42;;;;;;;18.30;44.45;102498.81;4967459;28;20045;-72
2024/01/30 08:55:33;;;;;;;3.90;2.00;;;;;;;18.37;44.29;102508.06;4968728;28;20423;-69
2024/01/30 08:57:59;;;;;;;5.68;2.03;;;;;;;18.27;44.27;102486.63;4967975;28;20039;-69
2024/01/30 09:00:24;;;;;;;5.25;2.13;;;;;;;18.26;44.14;102482.31;4968245;28;20097;-70
2024/01/30 09:02:50;;;;;;;4.43;2.20;;;;;;;18.30;43.95;102493.53;4965678;28;20070;-72
2024/01/30 09:05:15;;;;;;;4.85;2.30;;;;;;;18.30;44.23;102502.28;4968325;28;20082;-72
2024/01/30 09:07:41;;;;;;;4.95;2.50;;;;;;;18.34;44.20;102508.28;4968182;28;20122;-70
2024/01/30 09:10:06;;;;;;;5.63;2.47;;;;;;;18.37;44.25;102517.78;4968596;28;20042;-70
2024/01/30 09:12:32;;;;;;;4.30;2.35;;;;;;;18.36;44.12;102516.94;4968713;28;20077;-72
2024/01/30 09:14:57;;;;;;;3.85;2.35;;;;;;;18.22;44.44;102495.75;4969120;28;20448;-71
2024/01/30 09:17:22;;;;;;;4.47;2.20;;;;;;;18.35;44.27;102525.78;4968695;28;20026;-73
2024/01/30 09:19:48;;;;;;;4.13;2.20;;;;;;;18.31;44.32;102524.28;4968695;28;20109;-70
2024/01/30 09:22:13;;;;;;;5.65;2.50;;;;;;;18.26;44.28;102513.09;4968518;28;20030;-72
2024/01/30 09:24:38;;;;;;;4.72;2.30;;;;;;;18.21;44.36;102508.06;4968252;28;20480;-72
2024/01/30 09:27:04;;;;;;;4.10;2.25;;;;;;;18.19;44.16;102511.75;4967914;28;20081;-73
2024/01/30 09:29:29;;;;;;;4.22;2.25;;;;;;;18.26;44.17;102521.88;4968324;28;20463;-71
2024/01/30 09:31:55;;;;;;;4.65;2.40;;;;;;;18.28;44.61;102533.19;4968134;28;20030;-70
2024/01/30 09:34:20;;;;;;;4.40;2.10;;;;;;;18.29;44.18;102534.03;4967267;28;20038;-71
2024/01/30 09:36:46;;;;;;;5.00;2.22;;;;;;;18.27;44.08;102536.78;4968226;28;20059;-71
2024/01/30 09:39:11;;;;;;;6.57;2.22;;;;;;;18.27;44.22;102538.56;4968309;28;20038;-72
2024/01/30 09:42:13;;;;;;;5.55;2.35;;;;;;;18.26;44.27;102547.41;4963792;28;20034;-72
2024/01/30 09:44:43;;;;;;;5.63;2.33;;;;;;;18.24;44.24;102551.94;4955142;28;20042;-73
2024/01/30 09:47:09;;;;;;;4.72;2.30;;;;;;;18.16;44.05;102533.88;4967455;28;20066;-72
2024/01/30 09:49:35;;;;;;;5.28;2.40;;;;;;;18.22;44.48;102554.66;4968441;28;20043;-70
2024/01/30 09:52:02;;;;;;;4.47;2.15;;;;;;;18.27;44.00;102557.88;4967365;28;20034;-71
2024/01/30 09:54:31;;;;;;;5.38;2.05;;;;;;;18.16;44.32;102544.44;4968210;28;20424;-72
2024/01/30 09:56:56;;;;;;;4.70;2.10;;;;;;;18.25;44.27;102551.00;4967676;28;20105;-71
2024/01/30 09:59:22;;;;;;;4.60;2.15;;;;;;;18.16;44.05;102544.44;4966517;28;20391;-73
2024/01/30 10:01:47;;;;;;;5.30;2.30;;;;;;;18.23;44.16;102545.81;4965973;28;20034;-69
2024/01/30 10:04:13;;;;;;;4.50;2.33;;;;;;;18.17;44.19;102537.38;4967354;28;20062;-72
2024/01/30 10:06:40;;;;;;;4.78;1.88;;;;;;;18.26;44.26;102550.91;4963943;28;20639;-71
2024/01/30 10:09:05;;;;;;;4.82;2.35;;;;;;;18.26;44.19;102553.56;4967698;28;20027;-71
2024/01/30 10:11:30;;;;;;;4.13;2.10;;;;;;;18.28;44.47;102556.13;4967733;28;20105;-71
2024/01/30 10:13:55;;;;;;;4.75;2.30;;;;;;;18.17;44.16;102535.59;4966772;28;20280;-69
2024/01/30 10:16:21;;;;;;;4.07;2.30;;;;;;;18.28;44.39;102564.03;4967035;28;20031;-71
2024/01/30 10:18:47;;;;;;;3.65;2.13;;;;;;;18.16;44.35;102543.59;4966648;28;20046;-70
2024/01/30 10:21:12;;;;;;;4.30;2.40;;;;;;;18.28;44.25;102571.94;4968053;28;20031;-71
2024/01/30 10:23:38;;;;;;;4.32;2.20;;;;;;;18.32;44.25;102570.84;4967919;28;20045;-72
2024/01/30 10:26:07;;;;;;;4.80;2.42;;;;;;;18.32;44.44;102570.84;4965804;28;20065;-72
2024/01/30 10:28:33;;;;;;;3.63;2.05;;;;;;;18.26;44.41;102565.88;4967863;28;20037;-72
2024/01/30 10:30:59;;;;;;;4.20;2.00;;;;;;;18.31;44.68;102575.28;4966852;28;20039;-72
2024/01/30 10:33:27;;;;;;;6.13;2.45;;;;;;;18.29;44.28;102571.88;4967472;28;20038;-72
2024/01/30 10:35:57;;;;;;;3.92;1.85;;;;;;;18.20;44.59;102569.72;4966791;28;20038;-71
2024/01/30 10:38:26;;;;;;;4.93;2.40;;;;;;;18.21;44.66;102567.94;4967106;28;20424;-72
2024/01/30 10:40:56;;;;;;;4.82;1.98;;;;;;;18.21;44.31;102560.84;4966057;28;20504;-69
2024/01/30 10:43:22;;;;;;;4.80;2.33;;;;;;;18.23;44.66;102555.50;4967247;28;20479;-70
2024/01/30 10:45:49;;;;;;;4.47;2.10;;;;;;;18.31;44.57;102577.91;4966453;28;20125;-73
2024/01/30 10:48:18;;;;;;;4.20;2.10;;;;;;;18.15;44.50;102553.31;4967405;28;20064;-71
2024/01/30 10:50:45;;;;;;;4.60;2.00;;;;;;;18.22;44.86;102559.94;4966624;28;20101;-69
2024/01/30 10:53:11;;;;;;;4.15;2.13;;;;;;;18.27;44.86;102576.34;4967382;28;20035;-72
2024/01/30 10:55:38;;;;;;;4.28;2.13;;;;;;;18.33;44.45;102569.91;4966963;28;20039;-68
2024/01/30 10:58:04;;;;;;;4.70;2.20;;;;;;;18.34;44.75;102576.03;4967234;28;20499;-70
2024/01/30 11:00:29;;;;;;;5.28;2.40;;;;;;;18.37;44.99;102589.06;4966601;28;20062;-70
2024/01/30 11:02:55;;;;;;;3.92;2.08;;;;;;;18.36;45.12;102588.22;4965114;28;20193;-72
2024/01/30 11:05:26;;;;;;;4.43;2.13;;;;;;;18.38;45.40;102585.50;4966608;28;20073;-71
2024/01/30 11:07:51;;;;;;;4.60;2.10;;;;;;;18.37;45.26;102589.91;4967280;28;20054;-69
2024/01/30 11:10:17;;;;;;;4.20;2.20;;;;;;;18.31;45.19;102570.00;4960465;28;20039;-71
2024/01/30 11:12:43;;;;;;;5.90;2.55;;;;;;;18.34;45.35;102586.59;4968275;28;20035;-68
2024/01/30 11:15:10;;;;;;;5.25;2.42;;;;;;;18.25;44.93;102570.31;4969402;28;20062;-69
2024/01/30 11:17:43;;;;;;;5.10;2.42;;;;;;;18.43;45.06;102586.09;4970159;28;20035;-68